Terminal Aerodrome Forecast
Issued by NWS Buffalo, NY

Home | Current Version | Previous Version | Text Only | Print | Product List | Glossary On
Versions: 1 2 3 4 5 6 7 8 9 10 11 12 13 14 15 16 17 18 19 20 21 22 23 24 25
000
FTUS41 KBUF 250900 AAB
TAFROC
TAF AMD
KROC 250900Z 2509/2606 11012KT 6SM -RA BKN040
      TEMPO 2510/2513 4SM -RA BR BKN025
     FM251300 10012G20KT 4SM RA OVC025
     FM251600 08010G22KT 4SM RA OVC015
     FM251900 08011G21KT P6SM VCSH OVC007
     FM260000 09008KT P6SM OVC007=

USA.gov is the U.S. government's official web portal to all federal, state and local government web resources and services.